VOZ866 YSSY-YMML
Flight info
| Callsign | VOZ866 |
|---|---|
| Flight time | 1h 8m |
| Altitude | 32000 |
| Route | WOL H65 LEECE Q29 ML |
| Aircraft | B738/M-SDE2E3FGHIRWXY/LB1 |
Departure
| Time | 2026-04-30 10:46 |
|---|---|
| Airport | Sydney Kingsford Smith International Airport (YSSY) |
Arrival
| Time | 2026-04-30 11:54 |
|---|---|
| Airport | Melbourne Airport (YMML) |
| Time | Latitude | Longitude | Altitude | Speed | Heading |
|---|---|---|---|---|---|
| 2026-04-30 08:54 | -33.93597 | 151.17991 | 29 ft | 0 kts | 280° |
| 2026-04-30 10:28 | -33.93598 | 151.17995 | 29 ft | 2 kts | 278° |
| 2026-04-30 10:29 | -33.93601 | 151.18015 | 29 ft | 2 kts | 278° |
| 2026-04-30 10:29 | -33.93602 | 151.18034 | 29 ft | 2 kts | 270° |
| 2026-04-30 10:29 | -33.93598 | 151.18053 | 29 ft | 2 kts | 197° |
| 2026-04-30 10:29 | -33.93591 | 151.18054 | 29 ft | 0 kts | 189° |
| 2026-04-30 10:32 | -33.93636 | 151.18049 | 29 ft | 11 kts | 184° |
| 2026-04-30 10:33 | -33.93682 | 151.18053 | 29 ft | 0 kts | 170° |
| 2026-04-30 10:33 | -33.93718 | 151.18061 | 29 ft | 13 kts | 168° |
| 2026-04-30 10:33 | -33.93728 | 151.18063 | 29 ft | 0 kts | 168° |
| 2026-04-30 10:34 | -33.93748 | 151.18068 | 29 ft | 10 kts | 169° |
| 2026-04-30 10:34 | -33.93789 | 151.18019 | 29 ft | 11 kts | 262° |
| 2026-04-30 10:34 | -33.93808 | 151.17907 | 29 ft | 14 kts | 253° |
| 2026-04-30 10:34 | -33.93836 | 151.17800 | 29 ft | 13 kts | 243° |
| 2026-04-30 10:35 | -33.93901 | 151.17777 | 29 ft | 11 kts | 165° |
| 2026-04-30 10:35 | -33.93982 | 151.17803 | 28 ft | 14 kts | 165° |
| 2026-04-30 10:35 | -33.94073 | 151.17828 | 28 ft | 13 kts | 167° |
| 2026-04-30 10:35 | -33.94160 | 151.17848 | 29 ft | 13 kts | 170° |
| 2026-04-30 10:36 | -33.94248 | 151.17868 | 29 ft | 13 kts | 166° |
| 2026-04-30 10:36 | -33.94350 | 151.17896 | 29 ft | 17 kts | 167° |
| 2026-04-30 10:36 | -33.94461 | 151.17897 | 29 ft | 16 kts | 212° |
| 2026-04-30 10:36 | -33.94579 | 151.17895 | 29 ft | 18 kts | 166° |
| 2026-04-30 10:37 | -33.94700 | 151.17926 | 29 ft | 18 kts | 168° |
| 2026-04-30 10:37 | -33.94817 | 151.17958 | 29 ft | 17 kts | 167° |
| 2026-04-30 10:37 | -33.94930 | 151.17987 | 29 ft | 16 kts | 168° |
| 2026-04-30 10:37 | -33.95037 | 151.18014 | 29 ft | 14 kts | 168° |
| 2026-04-30 10:38 | -33.95102 | 151.18081 | 29 ft | 13 kts | 102° |
| 2026-04-30 10:38 | -33.95084 | 151.18187 | 29 ft | 15 kts | 77° |
| 2026-04-30 10:38 | -33.95061 | 151.18319 | 29 ft | 14 kts | 77° |
| 2026-04-30 10:38 | -33.95045 | 151.18407 | 29 ft | 3 kts | 78° |
| 2026-04-30 10:39 | -33.95045 | 151.18409 | 29 ft | 0 kts | 78° |
| 2026-04-30 10:40 | -33.95043 | 151.18461 | 29 ft | 13 kts | 103° |
| 2026-04-30 10:41 | -33.95120 | 151.18548 | 29 ft | 16 kts | 138° |
| 2026-04-30 10:41 | -33.95213 | 151.18650 | 29 ft | 19 kts | 140° |
| 2026-04-30 10:41 | -33.95345 | 151.18728 | 29 ft | 23 kts | 169° |
| 2026-04-30 10:41 | -33.95497 | 151.18765 | 29 ft | 25 kts | 168° |
| 2026-04-30 10:42 | -33.95688 | 151.18813 | 29 ft | 28 kts | 168° |
| 2026-04-30 10:42 | -33.95870 | 151.18862 | 29 ft | 26 kts | 167° |
| 2026-04-30 10:42 | -33.96042 | 151.18908 | 29 ft | 24 kts | 168° |
| 2026-04-30 10:42 | -33.96202 | 151.18948 | 29 ft | 23 kts | 168° |
| 2026-04-30 10:43 | -33.96356 | 151.18989 | 29 ft | 22 kts | 168° |
| 2026-04-30 10:43 | -33.96503 | 151.19027 | 29 ft | 22 kts | 167° |
| 2026-04-30 10:43 | -33.96645 | 151.19064 | 29 ft | 20 kts | 168° |
| 2026-04-30 10:43 | -33.96783 | 151.19064 | 29 ft | 20 kts | 187° |
| 2026-04-30 10:44 | -33.96915 | 151.19088 | 29 ft | 19 kts | 167° |
| 2026-04-30 10:44 | -33.97042 | 151.19121 | 29 ft | 18 kts | 168° |
| 2026-04-30 10:44 | -33.97123 | 151.19205 | 29 ft | 17 kts | 91° |
| 2026-04-30 10:44 | -33.97098 | 151.19342 | 25 ft | 17 kts | 65° |
| 2026-04-30 10:45 | -33.96992 | 151.19356 | 24 ft | 16 kts | 345° |
| 2026-04-30 10:45 | -33.96668 | 151.19272 | 24 ft | 88 kts | 348° |
| 2026-04-30 10:45 | -33.95833 | 151.19056 | 34 ft | 157 kts | 348° |
| 2026-04-30 10:45 | -33.94657 | 151.18750 | 484 ft | 187 kts | 349° |
| 2026-04-30 10:46 | -33.93332 | 151.18669 | 1238 ft | 198 kts | 19° |
| 2026-04-30 10:46 | -33.92292 | 151.19703 | 1964 ft | 201 kts | 64° |
| 2026-04-30 10:46 | -33.92188 | 151.21346 | 2582 ft | 203 kts | 108° |
| 2026-04-30 10:46 | -33.92920 | 151.22868 | 3015 ft | 218 kts | 117° |
| 2026-04-30 10:47 | -33.93634 | 151.24509 | 3546 ft | 224 kts | 113° |
| 2026-04-30 10:47 | -33.93946 | 151.26348 | 4018 ft | 234 kts | 88° |
| 2026-04-30 10:47 | -33.93861 | 151.28409 | 4366 ft | 255 kts | 86° |
| 2026-04-30 10:47 | -33.93763 | 151.30575 | 5131 ft | 261 kts | 86° |
| 2026-04-30 10:48 | -33.93675 | 151.32730 | 5989 ft | 262 kts | 86° |
| 2026-04-30 10:48 | -33.93593 | 151.34932 | 6825 ft | 265 kts | 87° |
| 2026-04-30 10:48 | -33.93523 | 151.37168 | 7591 ft | 269 kts | 90° |
| 2026-04-30 10:48 | -33.94023 | 151.39324 | 8326 ft | 275 kts | 121° |
| 2026-04-30 10:49 | -33.95383 | 151.40951 | 9105 ft | 281 kts | 147° |
| 2026-04-30 10:49 | -33.97230 | 151.41761 | 9860 ft | 289 kts | 172° |
| 2026-04-30 10:49 | -33.99244 | 151.41569 | 10594 ft | 295 kts | 196° |
| 2026-04-30 10:49 | -34.01129 | 151.40429 | 10922 ft | 317 kts | 216° |
| 2026-04-30 10:50 | -34.02875 | 151.38647 | 11109 ft | 341 kts | 222° |
| 2026-04-30 10:50 | -34.04652 | 151.36630 | 11338 ft | 360 kts | 223° |
| 2026-04-30 10:50 | -34.05856 | 151.35234 | 11673 ft | 366 kts | 223° |
| 2026-04-30 10:50 | -34.08306 | 151.32400 | 12565 ft | 370 kts | 223° |
| 2026-04-30 10:51 | -34.10181 | 151.30257 | 13287 ft | 372 kts | 222° |
| 2026-04-30 10:51 | -34.12076 | 151.28116 | 13976 ft | 375 kts | 222° |
| 2026-04-30 10:51 | -34.13995 | 151.25962 | 14608 ft | 378 kts | 222° |
| 2026-04-30 10:51 | -34.15932 | 151.23799 | 15236 ft | 381 kts | 221° |
| 2026-04-30 10:52 | -34.17884 | 151.21622 | 15851 ft | 383 kts | 221° |
| 2026-04-30 10:52 | -34.19846 | 151.19434 | 16466 ft | 385 kts | 221° |
| 2026-04-30 10:52 | -34.21821 | 151.17233 | 17082 ft | 388 kts | 221° |
| 2026-04-30 10:52 | -34.23812 | 151.15012 | 17661 ft | 391 kts | 221° |
| 2026-04-30 10:53 | -34.25817 | 151.12773 | 18231 ft | 394 kts | 221° |
| 2026-04-30 10:53 | -34.27154 | 151.11280 | 18614 ft | 396 kts | 222° |
| 2026-04-30 10:53 | -34.29184 | 151.09010 | 19124 ft | 399 kts | 222° |
| 2026-04-30 10:53 | -34.31890 | 151.05983 | 19797 ft | 402 kts | 222° |
| 2026-04-30 10:54 | -34.33943 | 151.03684 | 20301 ft | 404 kts | 222° |
| 2026-04-30 10:54 | -34.36016 | 151.01361 | 20793 ft | 407 kts | 222° |
| 2026-04-30 10:54 | -34.38097 | 150.99027 | 21268 ft | 410 kts | 222° |
| 2026-04-30 10:54 | -34.39483 | 150.97472 | 21583 ft | 411 kts | 222° |
| 2026-04-30 10:55 | -34.41587 | 150.95109 | 22051 ft | 414 kts | 222° |
| 2026-04-30 10:55 | -34.43704 | 150.92730 | 22517 ft | 416 kts | 222° |
| 2026-04-30 10:55 | -34.45832 | 150.90336 | 22971 ft | 419 kts | 222° |
| 2026-04-30 10:55 | -34.47974 | 150.87926 | 23413 ft | 421 kts | 222° |
| 2026-04-30 10:56 | -34.50128 | 150.85499 | 23840 ft | 424 kts | 222° |
| 2026-04-30 10:56 | -34.52294 | 150.83058 | 24229 ft | 426 kts | 222° |
| 2026-04-30 10:56 | -34.54470 | 150.80605 | 24609 ft | 428 kts | 222° |
| 2026-04-30 10:56 | -34.56516 | 150.78043 | 24979 ft | 430 kts | 230° |
| 2026-04-30 10:57 | -34.58321 | 150.75153 | 25354 ft | 431 kts | 233° |
| 2026-04-30 10:57 | -34.60085 | 150.72193 | 25716 ft | 433 kts | 233° |
| 2026-04-30 10:57 | -34.61842 | 150.69212 | 26066 ft | 435 kts | 233° |
| 2026-04-30 10:57 | -34.63606 | 150.66225 | 26401 ft | 437 kts | 233° |
| 2026-04-30 10:58 | -34.65385 | 150.63227 | 26742 ft | 438 kts | 233° |
| 2026-04-30 10:58 | -34.67180 | 150.60219 | 27080 ft | 440 kts | 233° |
| 2026-04-30 10:58 | -34.68981 | 150.57209 | 27412 ft | 441 kts | 233° |
| 2026-04-30 10:58 | -34.70790 | 150.54190 | 27746 ft | 443 kts | 233° |
| 2026-04-30 10:59 | -34.72608 | 150.51160 | 28057 ft | 444 kts | 233° |
| 2026-04-30 10:59 | -34.74407 | 150.48157 | 28363 ft | 446 kts | 233° |
| 2026-04-30 10:59 | -34.76236 | 150.45102 | 28661 ft | 448 kts | 233° |
| 2026-04-30 10:59 | -34.78071 | 150.42034 | 28957 ft | 449 kts | 233° |
| 2026-04-30 11:00 | -34.79911 | 150.38954 | 29248 ft | 451 kts | 233° |
| 2026-04-30 11:00 | -34.81758 | 150.35859 | 29542 ft | 452 kts | 233° |
| 2026-04-30 11:00 | -34.83608 | 150.32757 | 29842 ft | 454 kts | 233° |
| 2026-04-30 11:00 | -34.85458 | 150.29652 | 30195 ft | 453 kts | 233° |
| 2026-04-30 11:01 | -34.87305 | 150.26549 | 30632 ft | 450 kts | 233° |
| 2026-04-30 11:01 | -34.89136 | 150.23470 | 31035 ft | 448 kts | 233° |
| 2026-04-30 11:01 | -34.90932 | 150.20447 | 31378 ft | 446 kts | 233° |
| 2026-04-30 11:01 | -34.92747 | 150.17390 | 31693 ft | 445 kts | 233° |
| 2026-04-30 11:02 | -34.94558 | 150.14336 | 32017 ft | 444 kts | 233° |
| 2026-04-30 11:02 | -34.96361 | 150.11294 | 32369 ft | 442 kts | 233° |
| 2026-04-30 11:02 | -34.98156 | 150.08263 | 32741 ft | 439 kts | 233° |
| 2026-04-30 11:02 | -34.99939 | 150.05249 | 33082 ft | 438 kts | 233° |
| 2026-04-30 11:03 | -35.01716 | 150.02242 | 33383 ft | 437 kts | 233° |
| 2026-04-30 11:03 | -35.03491 | 149.99239 | 33675 ft | 435 kts | 233° |
| 2026-04-30 11:03 | -35.05256 | 149.96248 | 34034 ft | 433 kts | 233° |
| 2026-04-30 11:04 | -35.08734 | 149.90356 | 34643 ft | 430 kts | 233° |
| 2026-04-30 11:04 | -35.10480 | 149.87399 | 34852 ft | 430 kts | 233° |
| 2026-04-30 11:04 | -35.12226 | 149.84437 | 35050 ft | 430 kts | 234° |
| 2026-04-30 11:04 | -35.13971 | 149.81475 | 35300 ft | 428 kts | 234° |
| 2026-04-30 11:05 | -35.15708 | 149.78524 | 35546 ft | 427 kts | 234° |
| 2026-04-30 11:05 | -35.17441 | 149.75576 | 35738 ft | 428 kts | 234° |
| 2026-04-30 11:05 | -35.19179 | 149.72618 | 35892 ft | 429 kts | 234° |
| 2026-04-30 11:05 | -35.20916 | 149.69657 | 36071 ft | 428 kts | 234° |
| 2026-04-30 11:06 | -35.22652 | 149.66697 | 36291 ft | 428 kts | 234° |
| 2026-04-30 11:06 | -35.24381 | 149.63746 | 36459 ft | 428 kts | 234° |
| 2026-04-30 11:06 | -35.26096 | 149.60815 | 36443 ft | 430 kts | 234° |
| 2026-04-30 11:07 | -35.29553 | 149.54902 | 36451 ft | 428 kts | 234° |
| 2026-04-30 11:07 | -35.33003 | 149.48991 | 36459 ft | 425 kts | 234° |
| 2026-04-30 11:08 | -35.36425 | 149.43118 | 36458 ft | 423 kts | 234° |
| 2026-04-30 11:08 | -35.39832 | 149.37262 | 36456 ft | 421 kts | 234° |
| 2026-04-30 11:09 | -35.43228 | 149.31414 | 36462 ft | 421 kts | 234° |
| 2026-04-30 11:09 | -35.46630 | 149.25546 | 36467 ft | 423 kts | 234° |
| 2026-04-30 11:10 | -35.50019 | 149.19689 | 36466 ft | 425 kts | 235° |
| 2026-04-30 11:10 | -35.53443 | 149.13764 | 36468 ft | 427 kts | 235° |
| 2026-04-30 11:11 | -35.56881 | 149.07805 | 36472 ft | 429 kts | 235° |
| 2026-04-30 11:11 | -35.60330 | 149.01813 | 36481 ft | 430 kts | 235° |
| 2026-04-30 11:12 | -35.63785 | 148.95803 | 36484 ft | 431 kts | 235° |
| 2026-04-30 11:12 | -35.67223 | 148.89811 | 36485 ft | 432 kts | 235° |
| 2026-04-30 11:13 | -35.70679 | 148.83779 | 36494 ft | 431 kts | 235° |
| 2026-04-30 11:13 | -35.74126 | 148.77752 | 36481 ft | 430 kts | 235° |
| 2026-04-30 11:14 | -35.77562 | 148.71731 | 36498 ft | 430 kts | 235° |
| 2026-04-30 11:14 | -35.80993 | 148.65710 | 36490 ft | 429 kts | 235° |
| 2026-04-30 11:15 | -35.84414 | 148.59695 | 36483 ft | 428 kts | 235° |
| 2026-04-30 11:15 | -35.87803 | 148.53727 | 36497 ft | 427 kts | 235° |
| 2026-04-30 11:16 | -35.91199 | 148.47713 | 36485 ft | 427 kts | 236° |
| 2026-04-30 11:16 | -35.94582 | 148.41692 | 36485 ft | 427 kts | 236° |
| 2026-04-30 11:17 | -35.97961 | 148.35669 | 36478 ft | 427 kts | 236° |
| 2026-04-30 11:17 | -36.01338 | 148.29642 | 36476 ft | 427 kts | 236° |
| 2026-04-30 11:18 | -36.04716 | 148.23603 | 36462 ft | 427 kts | 236° |
| 2026-04-30 11:18 | -36.09763 | 148.14560 | 36454 ft | 429 kts | 236° |
| 2026-04-30 11:19 | -36.13148 | 148.08489 | 36457 ft | 429 kts | 236° |
| 2026-04-30 11:19 | -36.16545 | 148.02410 | 36438 ft | 430 kts | 236° |
| 2026-04-30 11:20 | -36.19942 | 147.96323 | 36442 ft | 430 kts | 236° |
| 2026-04-30 11:20 | -36.23315 | 147.90264 | 36433 ft | 430 kts | 236° |
| 2026-04-30 11:21 | -36.26709 | 147.84156 | 36441 ft | 431 kts | 236° |
| 2026-04-30 11:21 | -36.30102 | 147.78038 | 36433 ft | 431 kts | 236° |
| 2026-04-30 11:22 | -36.33493 | 147.71914 | 36446 ft | 431 kts | 237° |
| 2026-04-30 11:22 | -36.36876 | 147.65784 | 36440 ft | 431 kts | 237° |
| 2026-04-30 11:23 | -36.40258 | 147.59639 | 36442 ft | 431 kts | 237° |
| 2026-04-30 11:24 | -36.45309 | 147.50442 | 36433 ft | 432 kts | 237° |
| 2026-04-30 11:24 | -36.48689 | 147.44274 | 36434 ft | 432 kts | 237° |
| 2026-04-30 11:25 | -36.53761 | 147.34998 | 36431 ft | 432 kts | 237° |
| 2026-04-30 11:26 | -36.60488 | 147.22657 | 36437 ft | 432 kts | 238° |
| 2026-04-30 11:26 | -36.63858 | 147.16457 | 36435 ft | 433 kts | 238° |
| 2026-04-30 11:27 | -36.67229 | 147.10243 | 36431 ft | 433 kts | 238° |
| 2026-04-30 11:27 | -36.68919 | 147.07124 | 36192 ft | 438 kts | 238° |
| 2026-04-30 11:27 | -36.70631 | 147.03962 | 35673 ft | 440 kts | 238° |
| 2026-04-30 11:28 | -36.74048 | 146.97652 | 34335 ft | 443 kts | 238° |
| 2026-04-30 11:28 | -36.75763 | 146.94484 | 33847 ft | 439 kts | 238° |
| 2026-04-30 11:28 | -36.77463 | 146.91341 | 33345 ft | 435 kts | 238° |
| 2026-04-30 11:29 | -36.79149 | 146.88221 | 32878 ft | 431 kts | 238° |
| 2026-04-30 11:29 | -36.80817 | 146.85130 | 32420 ft | 428 kts | 238° |
| 2026-04-30 11:29 | -36.84109 | 146.79020 | 31530 ft | 421 kts | 238° |
| 2026-04-30 11:30 | -36.87348 | 146.72995 | 30670 ft | 415 kts | 238° |
| 2026-04-30 11:30 | -36.88953 | 146.70006 | 30193 ft | 412 kts | 237° |
| 2026-04-30 11:30 | -36.90522 | 146.67081 | 29703 ft | 409 kts | 237° |
| 2026-04-30 11:31 | -36.92099 | 146.64139 | 29237 ft | 406 kts | 238° |
| 2026-04-30 11:31 | -36.93660 | 146.61224 | 28797 ft | 402 kts | 238° |
| 2026-04-30 11:31 | -36.95208 | 146.58332 | 28349 ft | 399 kts | 238° |
| 2026-04-30 11:31 | -36.96743 | 146.55460 | 27909 ft | 396 kts | 238° |
| 2026-04-30 11:32 | -36.98265 | 146.52611 | 27476 ft | 392 kts | 238° |
| 2026-04-30 11:32 | -36.99775 | 146.49782 | 27046 ft | 390 kts | 238° |
| 2026-04-30 11:32 | -37.01274 | 146.46970 | 26628 ft | 387 kts | 238° |
| 2026-04-30 11:33 | -37.04246 | 146.41389 | 25778 ft | 383 kts | 238° |
| 2026-04-30 11:33 | -37.05719 | 146.38621 | 25360 ft | 381 kts | 238° |
| 2026-04-30 11:33 | -37.07165 | 146.35900 | 24929 ft | 381 kts | 238° |
| 2026-04-30 11:33 | -37.08627 | 146.33148 | 24336 ft | 382 kts | 238° |
| 2026-04-30 11:34 | -37.10104 | 146.30359 | 23779 ft | 385 kts | 239° |
| 2026-04-30 11:34 | -37.11585 | 146.27560 | 23211 ft | 385 kts | 240° |
| 2026-04-30 11:34 | -37.13056 | 146.24776 | 22769 ft | 382 kts | 240° |
| 2026-04-30 11:34 | -37.14517 | 146.22011 | 22335 ft | 379 kts | 240° |
| 2026-04-30 11:35 | -37.15967 | 146.19264 | 21910 ft | 376 kts | 240° |
| 2026-04-30 11:35 | -37.17404 | 146.16539 | 21493 ft | 373 kts | 240° |
| 2026-04-30 11:35 | -37.18829 | 146.13834 | 21089 ft | 370 kts | 240° |
| 2026-04-30 11:35 | -37.20225 | 146.11184 | 20689 ft | 368 kts | 240° |
| 2026-04-30 11:36 | -37.21630 | 146.08511 | 20285 ft | 366 kts | 240° |
| 2026-04-30 11:36 | -37.23026 | 146.05854 | 19878 ft | 364 kts | 240° |
| 2026-04-30 11:36 | -37.24414 | 146.03211 | 19486 ft | 361 kts | 240° |
| 2026-04-30 11:36 | -37.25794 | 146.00579 | 19073 ft | 360 kts | 240° |
| 2026-04-30 11:37 | -37.27168 | 145.97960 | 18680 ft | 359 kts | 240° |
| 2026-04-30 11:37 | -37.28537 | 145.95346 | 18205 ft | 357 kts | 240° |
| 2026-04-30 11:37 | -37.29896 | 145.92751 | 17794 ft | 355 kts | 240° |
| 2026-04-30 11:37 | -37.31246 | 145.90173 | 17359 ft | 352 kts | 240° |
| 2026-04-30 11:38 | -37.32593 | 145.87610 | 16945 ft | 350 kts | 240° |
| 2026-04-30 11:38 | -37.33933 | 145.85061 | 16541 ft | 348 kts | 240° |
| 2026-04-30 11:38 | -37.35247 | 145.82562 | 16144 ft | 346 kts | 240° |
| 2026-04-30 11:38 | -37.36568 | 145.80044 | 15763 ft | 344 kts | 240° |
| 2026-04-30 11:39 | -37.37881 | 145.77540 | 15390 ft | 342 kts | 239° |
| 2026-04-30 11:39 | -37.39186 | 145.75047 | 15000 ft | 341 kts | 239° |
| 2026-04-30 11:39 | -37.40482 | 145.72569 | 14624 ft | 339 kts | 239° |
| 2026-04-30 11:39 | -37.41774 | 145.70098 | 14250 ft | 337 kts | 239° |
| 2026-04-30 11:40 | -37.43061 | 145.67636 | 13830 ft | 336 kts | 239° |
| 2026-04-30 11:40 | -37.44339 | 145.65190 | 13425 ft | 333 kts | 239° |
| 2026-04-30 11:40 | -37.45619 | 145.62769 | 13039 ft | 331 kts | 238° |
| 2026-04-30 11:40 | -37.46961 | 145.60431 | 12671 ft | 329 kts | 236° |
| 2026-04-30 11:41 | -37.48303 | 145.58163 | 12306 ft | 327 kts | 236° |
| 2026-04-30 11:41 | -37.49655 | 145.55878 | 11936 ft | 325 kts | 236° |
| 2026-04-30 11:41 | -37.50993 | 145.53600 | 11570 ft | 322 kts | 236° |
| 2026-04-30 11:41 | -37.52320 | 145.51325 | 11037 ft | 326 kts | 237° |
| 2026-04-30 11:42 | -37.53665 | 145.49010 | 10637 ft | 325 kts | 237° |
| 2026-04-30 11:42 | -37.54984 | 145.46739 | 10434 ft | 317 kts | 237° |
| 2026-04-30 11:42 | -37.56269 | 145.44524 | 10293 ft | 308 kts | 237° |
| 2026-04-30 11:42 | -37.57515 | 145.42376 | 10139 ft | 300 kts | 237° |
| 2026-04-30 11:43 | -37.58725 | 145.40287 | 9997 ft | 291 kts | 237° |
| 2026-04-30 11:43 | -37.59894 | 145.38268 | 9949 ft | 279 kts | 237° |
| 2026-04-30 11:43 | -37.61052 | 145.36261 | 9499 ft | 283 kts | 237° |
| 2026-04-30 11:43 | -37.62207 | 145.34261 | 9181 ft | 282 kts | 237° |
| 2026-04-30 11:44 | -37.63340 | 145.32296 | 8891 ft | 280 kts | 237° |
| 2026-04-30 11:44 | -37.64483 | 145.30314 | 8584 ft | 278 kts | 237° |
| 2026-04-30 11:44 | -37.65619 | 145.28344 | 8300 ft | 277 kts | 237° |
| 2026-04-30 11:44 | -37.66748 | 145.26385 | 8010 ft | 276 kts | 238° |
| 2026-04-30 11:45 | -37.67874 | 145.24431 | 7713 ft | 275 kts | 238° |
| 2026-04-30 11:45 | -37.68996 | 145.22481 | 7432 ft | 274 kts | 238° |
| 2026-04-30 11:45 | -37.70112 | 145.20543 | 7156 ft | 273 kts | 238° |
| 2026-04-30 11:45 | -37.71225 | 145.18607 | 6875 ft | 272 kts | 238° |
| 2026-04-30 11:46 | -37.72333 | 145.16680 | 6583 ft | 271 kts | 238° |
| 2026-04-30 11:46 | -37.73431 | 145.14769 | 6285 ft | 270 kts | 238° |
| 2026-04-30 11:46 | -37.74478 | 145.12946 | 6077 ft | 266 kts | 238° |
| 2026-04-30 11:46 | -37.75548 | 145.11085 | 5967 ft | 258 kts | 238° |
| 2026-04-30 11:47 | -37.76588 | 145.09275 | 5817 ft | 252 kts | 239° |
| 2026-04-30 11:47 | -37.77615 | 145.07480 | 5552 ft | 252 kts | 239° |
| 2026-04-30 11:47 | -37.78641 | 145.05687 | 5312 ft | 251 kts | 239° |
| 2026-04-30 11:47 | -37.79662 | 145.03902 | 5059 ft | 250 kts | 240° |
| 2026-04-30 11:48 | -37.80681 | 145.02122 | 4799 ft | 250 kts | 240° |
| 2026-04-30 11:48 | -37.81502 | 145.00249 | 4530 ft | 234 kts | 262° |
| 2026-04-30 11:48 | -37.81819 | 144.98354 | 4453 ft | 218 kts | 264° |
| 2026-04-30 11:48 | -37.82137 | 144.96511 | 4237 ft | 212 kts | 264° |
| 2026-04-30 11:49 | -37.82453 | 144.94708 | 4041 ft | 209 kts | 264° |
| 2026-04-30 11:49 | -37.82711 | 144.92908 | 3823 ft | 208 kts | 268° |
| 2026-04-30 11:49 | -37.82931 | 144.91117 | 3579 ft | 202 kts | 268° |
| 2026-04-30 11:49 | -37.83132 | 144.89403 | 3342 ft | 191 kts | 272° |
| 2026-04-30 11:50 | -37.82810 | 144.87912 | 3124 ft | 168 kts | 320° |
| 2026-04-30 11:50 | -37.81820 | 144.87204 | 2989 ft | 167 kts | 337° |
| 2026-04-30 11:50 | -37.80760 | 144.86576 | 2768 ft | 168 kts | 345° |
| 2026-04-30 11:50 | -37.79640 | 144.86203 | 2555 ft | 166 kts | 349° |
| 2026-04-30 11:51 | -37.78533 | 144.85943 | 2345 ft | 163 kts | 353° |
| 2026-04-30 11:51 | -37.77430 | 144.85735 | 2143 ft | 158 kts | 353° |
| 2026-04-30 11:51 | -37.76336 | 144.85534 | 1924 ft | 161 kts | 353° |
| 2026-04-30 11:51 | -37.75230 | 144.85330 | 1707 ft | 159 kts | 353° |
| 2026-04-30 11:52 | -37.74217 | 144.85142 | 1493 ft | 143 kts | 354° |
| 2026-04-30 11:52 | -37.73281 | 144.84969 | 1338 ft | 135 kts | 354° |
| 2026-04-30 11:52 | -37.72356 | 144.84798 | 1145 ft | 134 kts | 353° |
| 2026-04-30 11:52 | -37.71417 | 144.84626 | 971 ft | 139 kts | 353° |
| 2026-04-30 11:53 | -37.70465 | 144.84449 | 774 ft | 138 kts | 353° |
| 2026-04-30 11:53 | -37.69528 | 144.84275 | 576 ft | 135 kts | 352° |
| 2026-04-30 11:53 | -37.68608 | 144.84101 | 398 ft | 136 kts | 352° |
| 2026-04-30 11:53 | -37.67766 | 144.83944 | 358 ft | 106 kts | 353° |
| 2026-04-30 11:54 | -37.67326 | 144.83868 | 373 ft | 36 kts | 351° |
| 2026-04-30 11:54 | -37.67099 | 144.83832 | 382 ft | 30 kts | 359° |
| 2026-04-30 11:54 | -37.66907 | 144.83878 | 388 ft | 19 kts | 19° |
| 2026-04-30 11:54 | -37.66825 | 144.83922 | 391 ft | 7 kts | 22° |
| 2026-04-30 11:55 | -37.66780 | 144.83945 | 392 ft | 7 kts | 22° |
| 2026-04-30 11:55 | -37.66740 | 144.83986 | 393 ft | 11 kts | 49° |
| 2026-04-30 11:55 | -37.66734 | 144.84129 | 393 ft | 21 kts | 122° |
| 2026-04-30 11:55 | -37.66862 | 144.84206 | 389 ft | 22 kts | 172° |
| 2026-04-30 11:56 | -37.67009 | 144.84233 | 385 ft | 18 kts | 172° |
| 2026-04-30 11:56 | -37.67066 | 144.84292 | 384 ft | 12 kts | 75° |
| 2026-04-30 11:56 | -37.67046 | 144.84409 | 386 ft | 13 kts | 80° |
| 2026-04-30 11:56 | -37.67016 | 144.84516 | 388 ft | 13 kts | 85° |
| 2026-04-30 11:57 | -37.67008 | 144.84609 | 390 ft | 10 kts | 80° |
| 2026-04-30 11:57 | -37.67012 | 144.84663 | 391 ft | 5 kts | 145° |
| 2026-04-30 11:57 | -37.67042 | 144.84670 | 390 ft | 4 kts | 171° |
| 2026-04-30 11:57 | -37.67060 | 144.84673 | 390 ft | 2 kts | 171° |
| 2026-04-30 11:58 | -37.67064 | 144.84674 | 390 ft | 0 kts | 172° |